Time;durP1;ratioP1;P1;durP2;ratioP2;P2;SDS_P1;SDS_P2;PMS_P1;PMS_P2;Temp;Humidity;BMP_temperature;BMP_pressure;BME280_temperature;BME280_humidity;BME280_pressure;Samples;Min_cycle;Max_cycle;Signal;HPM_P1;HPM_P2
2023/07/08 00:01:59;;;;;;;6.95;5.47;;;;;20.70;94382.00;;;;7395666;19;20627;-78
2023/07/08 00:04:48;;;;;;;9.80;6.30;;;;;20.80;94375.00;;;;7400495;19;20618;-78
2023/07/08 00:07:23;;;;;;;6.68;5.43;;;;;21.00;94373.00;;;;7397761;19;20131;-79
2023/07/08 00:09:57;;;;;;;10.10;6.40;;;;;21.00;94376.00;;;;7396194;19;20140;-76
2023/07/08 00:12:25;;;;;;;9.07;6.15;;;;;20.90;94375.00;;;;7399069;19;20245;-79
2023/07/08 00:15:01;;;;;;;8.60;6.00;;;;;20.90;94370.00;;;;7402397;19;20196;-79
2023/07/08 00:17:29;;;;;;;8.18;5.97;;;;;20.70;94372.00;;;;7398060;19;20148;-79
2023/07/08 00:20:20;;;;;;;12.77;5.72;;;;;20.90;94363.00;;;;7399358;19;20144;-82
2023/07/08 00:22:49;;;;;;;9.77;6.05;;;;;20.80;94373.00;;;;7401157;19;20136;-80
2023/07/08 00:25:24;;;;;;;9.73;5.53;;;;;20.60;94374.00;;;;7400894;19;20150;-76
2023/07/08 00:27:59;;;;;;;8.98;5.57;;;;;20.60;94365.00;;;;7399121;19;20169;-77
2023/07/08 00:30:31;;;;;;;10.55;5.95;;;;;20.60;94364.00;;;;7394039;19;20219;-77
2023/07/08 00:33:07;;;;;;;9.68;5.90;;;;;20.50;94378.00;;;;7398199;19;20150;-77
2023/07/08 00:35:40;;;;;;;9.95;6.53;;;;;20.50;94374.00;;;;7399502;19;20145;-76
2023/07/08 00:38:27;;;;;;;14.23;6.70;;;;;20.60;94373.00;;;;7399992;19;20137;-78
2023/07/08 00:41:16;;;;;;;7.85;5.70;;;;;20.60;94372.00;;;;7397399;19;20178;-76
2023/07/08 00:43:55;;;;;;;11.85;5.97;;;;;20.40;94374.00;;;;7399808;19;20592;-78
2023/07/08 00:46:29;;;;;;;9.60;6.10;;;;;20.50;94373.00;;;;7397544;19;20136;-76
2023/07/08 00:49:19;;;;;;;9.93;5.45;;;;;20.30;94381.00;;;;7398697;19;20129;-77
2023/07/08 00:51:53;;;;;;;8.25;5.57;;;;;20.30;94377.00;;;;7398791;19;20170;-76
2023/07/08 00:54:23;;;;;;;8.35;6.25;;;;;20.10;94368.00;;;;7394133;19;20212;-73
2023/07/08 00:57:01;;;;;;;12.85;6.75;;;;;20.00;94369.00;;;;7398028;19;20149;-78
2023/07/08 00:59:43;;;;;;;8.10;5.93;;;;;19.90;94371.00;;;;7399488;19;20508;-76
2023/07/08 01:02:21;;;;;;;8.60;6.35;;;;;20.10;94366.00;;;;7390079;19;20388;-80
2023/07/08 01:05:15;;;;;;;12.32;6.65;;;;;19.90;94365.00;;;;7397432;19;20129;-78
2023/07/08 01:07:54;;;;;;;10.75;6.20;;;;;20.10;94363.00;;;;7398158;19;20137;-80
2023/07/08 01:10:42;;;;;;;10.60;5.82;;;;;20.20;94355.00;;;;7397343;19;20152;-78
2023/07/08 01:13:18;;;;;;;8.48;6.20;;;;;20.30;94368.00;;;;7394463;19;20160;-76
2023/07/08 01:15:48;;;;;;;8.43;5.95;;;;;20.30;94362.00;;;;7396829;19;20170;-79
2023/07/08 01:18:24;;;;;;;8.98;5.78;;;;;20.30;94366.00;;;;7397218;19;20757;-77
2023/07/08 01:20:55;;;;;;;9.85;5.80;;;;;20.30;94357.00;;;;7397214;19;20171;-78
2023/07/08 01:23:29;;;;;;;10.45;6.45;;;;;20.30;94363.00;;;;7397613;19;20136;-79
2023/07/08 01:25:59;;;;;;;8.95;5.72;;;;;20.30;94363.00;;;;7395991;19;20145;-78
2023/07/08 01:28:33;;;;;;;7.78;5.85;;;;;20.10;94352.00;;;;7397167;19;20141;-78
2023/07/08 01:31:07;;;;;;;10.05;6.20;;;;;20.20;94349.00;;;;7396030;19;20635;-80
2023/07/08 01:33:41;;;;;;;7.65;5.65;;;;;20.20;94348.00;;;;7394390;19;20539;-80
2023/07/08 01:36:15;;;;;;;10.30;6.88;;;;;20.10;94356.00;;;;7395779;19;20145;-81
2023/07/08 01:38:52;;;;;;;9.77;6.20;;;;;20.00;94350.00;;;;7397692;19;20137;-80
2023/07/08 01:41:20;;;;;;;8.93;6.18;;;;;19.90;94356.00;;;;7395152;19;20128;-80
2023/07/08 01:43:55;;;;;;;10.27;6.32;;;;;20.00;94355.00;;;;7397079;19;20607;-78
2023/07/08 01:46:26;;;;;;;8.32;5.72;;;;;19.90;94355.00;;;;7396661;19;20616;-80
2023/07/08 01:49:01;;;;;;;12.27;6.43;;;;;19.80;94348.00;;;;7398213;19;20137;-78
2023/07/08 01:51:35;;;;;;;10.82;6.43;;;;;19.90;94348.00;;;;7392396;19;20200;-78
2023/07/08 01:54:09;;;;;;;8.80;6.05;;;;;19.90;94356.00;;;;7390096;19;20151;-79
2023/07/08 01:56:43;;;;;;;7.30;5.50;;;;;20.10;94347.00;;;;7395140;19;20483;-78
2023/07/08 01:59:11;;;;;;;10.35;6.13;;;;;20.10;94351.00;;;;7391733;19;20137;-78
2023/07/08 02:01:47;;;;;;;8.25;6.03;;;;;20.10;94347.00;;;;7392287;19;20180;-78
2023/07/08 02:04:23;;;;;;;7.57;6.13;;;;;20.10;94348.00;;;;7393573;19;20172;-78
2023/07/08 02:06:59;;;;;;;12.68;6.28;;;;;20.10;94343.00;;;;7395781;19;20144;-77
2023/07/08 02:09:28;;;;;;;8.57;6.03;;;;;20.00;94356.00;;;;7393704;19;20629;-78
2023/07/08 02:12:03;;;;;;;7.72;5.60;;;;;20.00;94359.00;;;;7393944;19;20132;-76
2023/07/08 02:14:37;;;;;;;9.93;6.43;;;;;19.90;94355.00;;;;7395833;19;20136;-75
2023/07/08 02:17:16;;;;;;;8.90;6.07;;;;;20.10;94355.00;;;;7395480;19;20633;-76
2023/07/08 02:19:44;;;;;;;10.77;6.65;;;;;20.30;94358.00;;;;7396039;19;20192;-76
2023/07/08 02:22:19;;;;;;;10.43;6.22;;;;;20.30;94364.00;;;;7394132;19;20152;-77
2023/07/08 02:24:47;;;;;;;9.63;5.65;;;;;20.30;94359.00;;;;7394333;19;20129;-76
2023/07/08 02:27:22;;;;;;;9.05;6.50;;;;;20.30;94359.00;;;;7391932;19;20480;-76
2023/07/08 02:29:50;;;;;;;11.15;6.13;;;;;20.40;94369.00;;;;7392516;19;20746;-75
2023/07/08 02:32:24;;;;;;;10.18;5.93;;;;;20.30;94367.00;;;;7395296;19;20173;-75
2023/07/08 02:34:52;;;;;;;8.85;6.60;;;;;20.40;94370.00;;;;7391343;19;20173;-75
2023/07/08 02:37:27;;;;;;;10.93;6.40;;;;;20.40;94370.00;;;;7394445;19;20783;-76
2023/07/08 02:39:55;;;;;;;7.93;6.07;;;;;20.30;94365.00;;;;7394451;19;20140;-77
2023/07/08 02:42:29;;;;;;;10.20;5.72;;;;;20.20;94365.00;;;;7394961;19;20135;-76
2023/07/08 02:44:57;;;;;;;11.65;6.30;;;;;20.10;94367.00;;;;7394167;19;21063;-76
2023/07/08 02:47:31;;;;;;;13.02;6.43;;;;;19.90;94369.00;;;;7394276;19;20152;-76
2023/07/08 02:49:59;;;;;;;8.98;5.75;;;;;19.80;94367.00;;;;7393177;19;20149;-76
2023/07/08 02:52:33;;;;;;;13.00;6.60;;;;;19.70;94371.00;;;;7393496;19;20622;-77
2023/07/08 02:55:02;;;;;;;9.32;6.45;;;;;19.60;94365.00;;;;7391365;19;20595;-77
2023/07/08 02:57:37;;;;;;;9.18;6.05;;;;;19.50;94378.00;;;;7394013;19;20130;-77
2023/07/08 03:00:06;;;;;;;9.65;6.30;;;;;19.50;94379.00;;;;7393489;19;20149;-76
2023/07/08 03:02:40;;;;;;;7.90;6.10;;;;;19.40;94376.00;;;;7392694;19;20518;-76
2023/07/08 03:05:20;;;;;;;9.48;6.03;;;;;19.40;94378.00;;;;7392505;19;20603;-77
2023/07/08 03:07:55;;;;;;;11.55;5.80;;;;;19.50;94386.00;;;;7393825;19;20153;-76
2023/07/08 03:10:29;;;;;;;9.90;6.60;;;;;19.40;94369.00;;;;7400799;19;20174;-76
2023/07/08 03:13:03;;;;;;;12.23;6.65;;;;;19.40;94380.00;;;;7400760;19;20153;-76
2023/07/08 03:15:39;;;;;;;9.77;6.40;;;;;19.50;94373.00;;;;7396740;19;20140;-76
2023/07/08 03:18:07;;;;;;;9.88;6.38;;;;;19.30;94366.00;;;;7401386;19;20625;-76
2023/07/08 03:20:44;;;;;;;12.95;7.45;;;;;19.30;94372.00;;;;7399757;19;20140;-76
2023/07/08 03:23:19;;;;;;;9.38;6.10;;;;;19.10;94372.00;;;;7401058;19;20133;-79
2023/07/08 03:25:53;;;;;;;8.18;5.85;;;;;19.00;94365.00;;;;7400723;19;20144;-79
2023/07/08 03:28:21;;;;;;;10.48;6.57;;;;;19.10;94365.00;;;;7399546;19;20136;-79
2023/07/08 03:30:53;;;;;;;9.55;6.65;;;;;19.50;94362.00;;;;7401768;19;20137;-77
2023/07/08 03:33:28;;;;;;;9.63;6.07;;;;;19.40;94362.00;;;;7400786;19;20124;-80
2023/07/08 03:35:56;;;;;;;12.50;6.05;;;;;19.50;94358.00;;;;7399162;19;20129;-79
2023/07/08 03:38:30;;;;;;;10.20;5.82;;;;;19.60;94361.00;;;;7399439;19;20137;-78
2023/07/08 03:40:58;;;;;;;8.00;5.72;;;;;19.60;94362.00;;;;7399541;19;20619;-80
2023/07/08 03:43:32;;;;;;;12.88;6.43;;;;;19.60;94365.00;;;;7401109;19;20486;-79
2023/07/08 03:46:00;;;;;;;9.98;5.78;;;;;19.80;94362.00;;;;7399570;19;20129;-79
2023/07/08 03:48:34;;;;;;;12.35;6.97;;;;;19.80;94368.00;;;;7400283;19;20504;-79
2023/07/08 03:51:02;;;;;;;9.35;5.70;;;;;19.80;94380.00;;;;7399216;19;20125;-79
2023/07/08 03:53:36;;;;;;;8.35;5.78;;;;;19.90;94376.00;;;;7397585;19;20155;-80
2023/07/08 03:56:04;;;;;;;10.18;6.32;;;;;20.00;94390.00;;;;7399360;19;20152;-79
2023/07/08 03:58:32;;;;;;;8.32;5.60;;;;;20.20;94372.00;;;;7399242;19;20508;-79
2023/07/08 04:01:14;;;;;;;7.32;5.80;;;;;20.30;94376.00;;;;7398862;19;20132;-80
2023/07/08 04:03:56;;;;;;;8.95;5.72;;;;;20.40;94377.00;;;;7396258;19;20243;-80
2023/07/08 04:06:31;;;;;;;10.18;6.03;;;;;20.60;94372.00;;;;7400458;19;20616;-79
2023/07/08 04:08:59;;;;;;;11.25;6.28;;;;;20.60;94368.00;;;;7399549;19;20216;-81
2023/07/08 04:11:34;;;;;;;10.30;6.00;;;;;20.60;94376.00;;;;7396495;19;20244;-78
2023/07/08 04:14:03;;;;;;;9.98;5.90;;;;;20.90;94371.00;;;;7398034;19;20157;-81
2023/07/08 04:16:51;;;;;;;9.50;5.90;;;;;21.10;94374.00;;;;7399358;19;20120;-81
2023/07/08 04:19:19;;;;;;;10.02;5.80;;;;;21.10;94367.00;;;;7399125;19;20494;-80
2023/07/08 04:21:53;;;;;;;10.38;5.88;;;;;21.20;94364.00;;;;7395241;19;20144;-78
2023/07/08 04:24:30;;;;;;;9.23;5.97;;;;;21.20;94365.00;;;;7399266;19;20133;-81
2023/07/08 04:26:58;;;;;;;10.18;6.10;;;;;21.20;94368.00;;;;7397151;19;20154;-80
2023/07/08 04:29:26;;;;;;;9.75;5.75;;;;;21.20;94369.00;;;;7398587;19;20236;-79
2023/07/08 04:32:01;;;;;;;9.77;5.60;;;;;21.30;94365.00;;;;7400819;19;20136;-80
2023/07/08 04:34:38;;;;;;;9.07;5.35;;;;;21.40;94361.00;;;;7399233;19;20579;-76
2023/07/08 04:37:12;;;;;;;9.23;5.93;;;;;21.60;94370.00;;;;7398722;19;20152;-79
2023/07/08 04:39:40;;;;;;;9.20;5.63;;;;;21.60;94372.00;;;;7399713;19;20139;-78
2023/07/08 04:42:17;;;;;;;8.77;5.97;;;;;21.60;94377.00;;;;7397758;19;20629;-78
2023/07/08 04:44:45;;;;;;;7.90;5.28;;;;;21.60;94381.00;;;;7394860;19;20162;-78
2023/07/08 04:47:20;;;;;;;9.90;5.78;;;;;21.70;94386.00;;;;7397145;19;20130;-77
2023/07/08 04:49:54;;;;;;;6.90;5.00;;;;;21.80;94386.00;;;;7397653;19;20129;-78
2023/07/08 04:52:28;;;;;;;9.48;4.85;;;;;21.90;94382.00;;;;7396519;19;20479;-77
2023/07/08 04:54:56;;;;;;;8.75;4.78;;;;;21.80;94380.00;;;;7396112;19;20483;-75
2023/07/08 04:57:30;;;;;;;6.22;4.38;;;;;21.80;94386.00;;;;7397802;19;20632;-77
2023/07/08 05:00:10;;;;;;;6.18;4.60;;;;;21.80;94396.00;;;;7396310;19;20173;-77
2023/07/08 05:02:37;;;;;;;7.18;4.50;;;;;21.90;94405.00;;;;7392026;19;20984;-77
2023/07/08 05:05:12;;;;;;;8.65;3.88;;;;;21.80;94407.00;;;;7395612;19;20584;-77
2023/07/08 05:07:40;;;;;;;5.85;3.65;;;;;21.70;94409.00;;;;7395193;19;20765;-78
2023/07/08 05:10:14;;;;;;;7.78;4.00;;;;;21.80;94409.00;;;;7398452;19;20125;-77
2023/07/08 05:12:48;;;;;;;5.10;3.92;;;;;21.80;94419.00;;;;7397275;19;20468;-78
2023/07/08 05:15:22;;;;;;;12.77;4.30;;;;;21.70;94411.00;;;;7394770;19;20152;-77
2023/07/08 05:18:03;;;;;;;6.38;4.10;;;;;21.80;94422.00;;;;7396582;19;20133;-78
2023/07/08 05:20:33;;;;;;;4.80;2.97;;;;;21.80;94423.00;;;;7398980;19;20140;-79
2023/07/08 05:23:08;;;;;;;7.63;4.13;;;;;22.00;94425.00;;;;7397815;19;20132;-79
2023/07/08 05:25:36;;;;;;;6.90;3.50;;;;;22.10;94420.00;;;;7392417;19;20161;-78
2023/07/08 05:28:10;;;;;;;7.85;3.80;;;;;22.40;94412.00;;;;7394111;19;20203;-78
2023/07/08 05:30:40;;;;;;;6.63;4.38;;;;;22.30;94405.00;;;;7396784;19;20613;-78
2023/07/08 05:33:14;;;;;;;5.65;3.65;;;;;22.40;94403.00;;;;7395837;19;20632;-80
2023/07/08 05:35:44;;;;;;;6.60;3.80;;;;;22.60;94408.00;;;;7393999;19;20514;-80
2023/07/08 05:38:18;;;;;;;7.15;3.90;;;;;22.40;94407.00;;;;7396859;19;20173;-78
2023/07/08 05:40:50;;;;;;;5.45;4.00;;;;;22.70;94407.00;;;;7393699;19;20173;-78
2023/07/08 05:43:27;;;;;;;5.13;3.25;;;;;22.70;94405.00;;;;7395873;19;20216;-78
2023/07/08 05:45:59;;;;;;;6.95;3.85;;;;;22.80;94399.00;;;;7395055;19;20216;-78
2023/07/08 05:48:39;;;;;;;7.88;3.97;;;;;23.10;94397.00;;;;7375682;19;20137;-77
2023/07/08 05:51:07;;;;;;;7.72;4.00;;;;;23.20;94407.00;;;;7376322;19;20188;-78
2023/07/08 05:53:42;;;;;;;6.40;3.42;;;;;23.50;94411.00;;;;7382043;19;20132;-78
2023/07/08 05:56:10;;;;;;;5.38;4.05;;;;;23.50;94408.00;;;;7383103;19;20148;-76
2023/07/08 05:58:44;;;;;;;8.13;3.55;;;;;23.70;94410.00;;;;7381962;19;20153;-77
2023/07/08 06:01:12;;;;;;;6.35;3.78;;;;;23.80;94393.00;;;;7381354;19;20620;-76
2023/07/08 06:04:09;;;;;;;4.95;3.03;;;;;23.70;94399.00;;;;7382424;19;20643;-77
2023/07/08 06:06:43;;;;;;;7.63;3.60;;;;;23.70;94402.00;;;;7379839;19;20152;-78
2023/07/08 06:09:11;;;;;;;7.93;3.05;;;;;23.80;94409.00;;;;7382409;19;20152;-77
2023/07/08 06:11:45;;;;;;;4.95;3.20;;;;;23.80;94416.00;;;;7385119;19;20132;-78
2023/07/08 06:14:19;;;;;;;6.95;3.00;;;;;23.80;94424.00;;;;7382914;19;20153;-77
2023/07/08 06:16:54;;;;;;;7.60;3.28;;;;;24.10;94427.00;;;;7379924;19;20169;-76
2023/07/08 06:19:28;;;;;;;6.63;2.63;;;;;24.40;94436.00;;;;7377817;19;20166;-78
2023/07/08 06:22:03;;;;;;;5.25;3.00;;;;;24.50;94444.00;;;;7379228;19;20259;-77
2023/07/08 06:24:57;;;;;;;5.15;2.90;;;;;24.50;94451.00;;;;7383652;19;20160;-78
2023/07/08 06:27:31;;;;;;;6.40;2.72;;;;;24.50;94454.00;;;;7382164;19;20139;-79
2023/07/08 06:30:06;;;;;;;4.22;2.88;;;;;24.00;94454.00;;;;7382761;19;20588;-77
2023/07/08 06:32:34;;;;;;;4.90;2.85;;;;;24.00;94461.00;;;;7382784;19;20148;-80
2023/07/08 06:35:09;;;;;;;5.57;2.90;;;;;23.80;94466.00;;;;7382161;19;20133;-77
2023/07/08 06:37:43;;;;;;;5.03;2.83;;;;;23.70;94474.00;;;;7382430;19;20138;-77
2023/07/08 06:40:19;;;;;;;4.45;2.63;;;;;23.70;94478.00;;;;7383263;19;20174;-80
2023/07/08 06:42:47;;;;;;;5.57;3.25;;;;;23.60;94478.00;;;;7383147;19;20597;-76
2023/07/08 06:45:15;;;;;;;4.60;2.90;;;;;23.50;94486.00;;;;7379688;19;20591;-79
2023/07/08 06:47:49;;;;;;;4.57;2.90;;;;;23.40;94484.00;;;;7386045;19;21308;-79
2023/07/08 06:50:17;;;;;;;4.18;2.72;;;;;23.50;94481.00;;;;7385394;19;20527;-79
2023/07/08 06:52:51;;;;;;;4.25;2.67;;;;;23.70;94480.00;;;;7387321;19;20599;-79
2023/07/08 06:55:19;;;;;;;5.15;2.83;;;;;23.70;94483.00;;;;7384628;19;20177;-79
2023/07/08 06:57:53;;;;;;;5.50;3.10;;;;;23.20;94491.00;;;;7381579;19;20594;-77
2023/07/08 07:00:21;;;;;;;3.83;2.75;;;;;23.10;94490.00;;;;7386811;19;20490;-78
2023/07/08 07:03:02;;;;;;;6.45;2.88;;;;;22.90;94477.00;;;;7384454;19;20221;-77
2023/07/08 07:05:31;;;;;;;3.35;2.50;;;;;23.00;94480.00;;;;7387131;19;20124;-78
2023/07/08 07:08:07;;;;;;;4.63;2.60;;;;;23.00;94484.00;;;;7383760;19;20137;-75
2023/07/08 07:10:42;;;;;;;2.85;2.55;;;;;22.70;94492.00;;;;7386697;19;20129;-77
2023/07/08 07:13:16;;;;;;;4.55;2.90;;;;;22.70;94492.00;;;;7386955;19;21091;-77
2023/07/08 07:15:44;;;;;;;4.35;2.50;;;;;22.90;94484.00;;;;7385223;19;20157;-76
2023/07/08 07:18:19;;;;;;;4.45;2.70;;;;;23.20;94472.00;;;;7385944;19;20148;-78
2023/07/08 07:20:55;;;;;;;6.78;2.47;;;;;23.80;94474.00;;;;7384276;19;20612;-76
2023/07/08 07:23:29;;;;;;;4.03;2.78;;;;;24.10;94480.00;;;;7384658;19;20151;-76
2023/07/08 07:26:04;;;;;;;4.70;2.92;;;;;24.10;94465.00;;;;7384081;19;20626;-77
2023/07/08 07:28:32;;;;;;;4.45;2.80;;;;;24.40;94469.00;;;;7384565;19;20133;-76
2023/07/08 07:31:11;;;;;;;3.42;2.20;;;;;24.40;94467.00;;;;7389289;19;20207;-77
2023/07/08 07:33:39;;;;;;;5.05;2.70;;;;;24.60;94462.00;;;;7385643;19;20129;-74
2023/07/08 07:36:13;;;;;;;5.47;2.30;;;;;25.40;94461.00;;;;7385927;19;20207;-76
2023/07/08 07:38:47;;;;;;;7.38;2.40;;;;;25.60;94476.00;;;;7384052;19;20614;-74
2023/07/08 07:41:23;;;;;;;3.15;2.70;;;;;25.40;94482.00;;;;7383868;19;20179;-75
2023/07/08 07:43:51;;;;;;;8.85;2.55;;;;;25.10;94491.00;;;;7384543;19;20461;-75
2023/07/08 07:46:25;;;;;;;4.80;2.83;;;;;24.50;94487.00;;;;7386056;19;20179;-76
2023/07/08 07:48:56;;;;;;;7.65;2.90;;;;;24.30;94493.00;;;;7386353;19;20175;-76
2023/07/08 07:51:30;;;;;;;5.70;2.50;;;;;24.50;94474.00;;;;7383750;19;20867;-76
2023/07/08 07:53:59;;;;;;;4.43;2.60;;;;;25.30;94463.00;;;;7385606;19;20656;-76
2023/07/08 07:56:27;;;;;;;5.28;2.70;;;;;25.40;94487.00;;;;7385505;19;20128;-77
2023/07/08 07:59:02;;;;;;;3.58;2.20;;;;;25.60;94471.00;;;;7385845;19;20155;-76
2023/07/08 08:01:30;;;;;;;3.65;2.22;;;;;25.70;94483.00;;;;7387639;19;20160;-76
2023/07/08 08:04:11;;;;;;;4.05;2.45;;;;;25.10;94487.00;;;;7386574;19;20185;-74
2023/07/08 08:06:39;;;;;;;4.88;2.28;;;;;24.80;94487.00;;;;7387372;19;20188;-73
2023/07/08 08:09:14;;;;;;;3.30;2.33;;;;;25.00;94482.00;;;;7388439;19;20508;-73
2023/07/08 08:11:51;;;;;;;2.83;2.15;;;;;25.20;94484.00;;;;7390203;19;20124;-73
2023/07/08 08:14:25;;;;;;;6.68;2.47;;;;;25.10;94495.00;;;;7387532;19;20226;-75
2023/07/08 08:16:55;;;;;;;6.05;2.15;;;;;25.50;94476.00;;;;7388849;19;20128;-74
2023/07/08 08:19:30;;;;;;;4.18;2.10;;;;;26.30;94474.00;;;;7387229;19;20156;-77
2023/07/08 08:22:04;;;;;;;3.33;2.28;;;;;27.10;94472.00;;;;7389381;19;20212;-73
2023/07/08 08:24:33;;;;;;;6.88;2.53;;;;;27.40;94481.00;;;;7388091;19;20128;-75
2023/07/08 08:27:07;;;;;;;3.42;2.15;;;;;26.80;94497.00;;;;7387833;19;20182;-74
2023/07/08 08:29:35;;;;;;;4.10;2.13;;;;;26.20;94490.00;;;;7388155;19;20156;-74
2023/07/08 08:32:14;;;;;;;3.35;2.10;;;;;26.10;94481.00;;;;7388696;19;20606;-74
2023/07/08 08:34:42;;;;;;;5.22;2.20;;;;;26.40;94487.00;;;;7385365;19;20153;-76
2023/07/08 08:37:17;;;;;;;5.75;2.13;;;;;26.30;94487.00;;;;7387035;19;20588;-75
2023/07/08 08:39:52;;;;;;;3.88;2.28;;;;;26.40;94488.00;;;;7389216;19;21980;-76
2023/07/08 08:42:28;;;;;;;3.25;2.42;;;;;26.60;94491.00;;;;7388505;19;20192;-75
2023/07/08 08:45:05;;;;;;;2.45;1.98;;;;;26.80;94486.00;;;;7389651;19;20155;-76
2023/07/08 08:47:42;;;;;;;3.00;2.10;;;;;27.10;94481.00;;;;7390252;19;20129;-75
2023/07/08 08:50:36;;;;;;;3.97;2.00;;;;;26.90;94479.00;;;;7387517;19;20571;-75
2023/07/08 08:53:10;;;;;;;4.28;2.17;;;;;27.00;94482.00;;;;7388410;19;20129;-76
2023/07/08 08:55:51;;;;;;;3.03;1.70;;;;;27.20;94481.00;;;;7387734;19;20596;-72
2023/07/08 08:58:38;;;;;;;5.82;2.10;;;;;27.60;94472.00;;;;7387512;19;20592;-77
2023/07/08 09:01:15;;;;;;;4.80;1.92;;;;;28.20;94482.00;;;;7388098;19;20133;-73
2023/07/08 09:04:13;;;;;;;3.47;1.95;;;;;28.10;94495.00;;;;7388748;19;20222;-77
2023/07/08 09:06:48;;;;;;;6.10;1.92;;;;;28.50;94484.00;;;;7385920;19;20173;-76
2023/07/08 09:09:33;;;;;;;2.47;1.70;;;;;28.60;94488.00;;;;7386539;19;20140;-76
2023/07/08 09:12:13;;;;;;;6.75;2.40;;;;;29.30;94483.00;;;;7385541;19;20157;-76
2023/07/08 09:14:50;;;;;;;5.32;1.77;;;;;29.40;94476.00;;;;7385842;19;20189;-75
2023/07/08 09:17:34;;;;;;;2.10;1.60;;;;;29.70;94483.00;;;;7387263;19;20191;-71
2023/07/08 09:20:22;;;;;;;3.80;2.03;;;;;29.90;94464.00;;;;7386726;19;20131;-76
2023/07/08 09:23:18;;;;;;;2.17;1.70;;;;;30.80;94466.00;;;;7386992;19;20129;-73
2023/07/08 09:26:07;;;;;;;3.38;2.28;;;;;31.00;94463.00;;;;7385059;19;20151;-75
2023/07/08 09:28:43;;;;;;;2.58;1.98;;;;;32.10;94483.00;;;;7384281;19;20264;-74
2023/07/08 09:31:24;;;;;;;4.57;2.00;;;;;32.00;94470.00;;;;7382184;19;20177;-74
2023/07/08 09:34:23;;;;;;;5.55;2.22;;;;;31.90;94494.00;;;;7385752;19;20174;-74
2023/07/08 09:36:53;;;;;;;2.67;2.30;;;;;31.30;94481.00;;;;7388135;19;20485;-74
2023/07/08 09:39:30;;;;;;;3.03;2.40;;;;;31.80;94482.00;;;;7385442;19;20127;-74
2023/07/08 09:42:06;;;;;;;4.15;2.67;;;;;32.00;94486.00;;;;7383520;19;20129;-72
2023/07/08 09:44:41;;;;;;;5.00;3.38;;;;;31.70;94497.00;;;;7383746;19;20124;-72
2023/07/08 09:47:34;;;;;;;4.97;2.92;;;;;32.10;94484.00;;;;7383968;19;20502;-73
2023/07/08 09:50:21;;;;;;;3.67;3.15;;;;;32.20;94494.00;;;;7385610;19;20131;-75
2023/07/08 09:52:59;;;;;;;4.22;3.53;;;;;32.20;94486.00;;;;7386279;19;20149;-72
2023/07/08 09:55:28;;;;;;;6.28;3.63;;;;;32.50;94491.00;;;;7381013;19;20144;-73
2023/07/08 09:58:03;;;;;;;4.07;3.35;;;;;32.60;94487.00;;;;7381596;19;20128;-73
2023/07/08 10:00:39;;;;;;;5.20;3.40;;;;;32.40;94488.00;;;;7383600;19;20233;-74
2023/07/08 10:03:38;;;;;;;7.35;3.05;;;;;32.10;94497.00;;;;7382524;19;20187;-73
2023/07/08 10:06:21;;;;;;;5.95;3.55;;;;;32.50;94494.00;;;;7386255;19;20154;-73
2023/07/08 10:09:18;;;;;;;5.72;3.30;;;;;32.90;94497.00;;;;7382925;19;20158;-75
2023/07/08 10:12:04;;;;;;;5.20;3.25;;;;;32.00;94492.00;;;;7385434;19;20170;-74
2023/07/08 10:14:50;;;;;;;6.80;3.33;;;;;32.20;94495.00;;;;7385213;19;20568;-74
2023/07/08 10:17:25;;;;;;;5.28;3.35;;;;;32.70;94488.00;;;;7385244;19;20607;-77
2023/07/08 10:19:53;;;;;;;5.93;3.88;;;;;32.30;94495.00;;;;7383808;19;20628;-77
2023/07/08 10:22:51;;;;;;;7.90;3.17;;;;;32.70;94494.00;;;;7384834;19;20571;-77
2023/07/08 10:25:56;;;;;;;6.40;3.60;;;;;32.50;94487.00;;;;7385338;19;20133;-78
2023/07/08 10:28:52;;;;;;;4.85;3.70;;;;;32.40;94494.00;;;;7383837;19;20670;-77
2023/07/08 10:31:38;;;;;;;6.80;4.22;;;;;32.40;94495.00;;;;7383900;19;20136;-78
2023/07/08 10:34:31;;;;;;;8.35;4.18;;;;;32.80;94525.00;;;;7392342;19;20575;-77
2023/07/08 10:37:17;;;;;;;5.47;3.75;;;;;31.20;94534.00;;;;7392484;19;20572;-77
2023/07/08 10:40:06;;;;;;;10.23;3.85;;;;;29.60;94534.00;;;;7394614;19;20604;-77
2023/07/08 10:43:11;;;;;;;6.72;3.80;;;;;29.00;94493.00;;;;7395279;19;20144;-79
2023/07/08 10:46:06;;;;;;;8.50;3.30;;;;;30.40;94528.00;;;;7395229;19;20140;-77
2023/07/08 10:49:16;;;;;;;10.57;3.92;;;;;29.40;94536.00;;;;7393543;19;20499;-79
2023/07/08 10:52:02;;;;;;;4.78;3.50;;;;;28.70;94509.00;;;;7389063;19;20132;-79
2023/07/08 10:54:56;;;;;;;4.97;3.10;;;;;29.60;94490.00;;;;7387862;19;20212;-75
2023/07/08 10:57:57;;;;;;;6.13;3.40;;;;;28.90;94528.00;;;;7385529;19;20162;-78
2023/07/08 11:00:51;;;;;;;4.60;3.28;;;;;28.10;94524.00;;;;7386663;19;20628;-76
2023/07/08 11:04:19;;;;;;;5.25;3.20;;;;;27.80;94522.00;;;;7385306;19;20184;-77
2023/07/08 11:07:15;;;;;;;7.13;3.53;;;;;28.20;94531.00;;;;7378886;19;20152;-74
2023/07/08 11:09:57;;;;;;;5.68;3.30;;;;;28.50;94528.00;;;;7391072;19;20668;-75
2023/07/08 11:12:33;;;;;;;5.93;3.38;;;;;28.00;94523.00;;;;7388735;19;20157;-75
2023/07/08 11:15:19;;;;;;;4.70;3.30;;;;;28.40;94533.00;;;;7388906;19;20216;-74
2023/07/08 11:18:00;;;;;;;5.53;3.35;;;;;28.10;94537.00;;;;7386150;19;20125;-77
2023/07/08 11:20:44;;;;;;;5.63;3.55;;;;;28.40;94540.00;;;;7388327;19;20125;-76
2023/07/08 11:23:54;;;;;;;5.32;3.00;;;;;28.20;94544.00;;;;7387429;19;20580;-76
2023/07/08 11:26:49;;;;;;;6.50;3.70;;;;;28.60;94530.00;;;;7386674;19;20200;-75
2023/07/08 11:29:41;;;;;;;5.35;3.10;;;;;28.90;94528.00;;;;7387824;19;21038;-75
2023/07/08 11:32:14;;;;;;;7.75;3.35;;;;;28.90;94537.00;;;;7395029;19;20141;-75
2023/07/08 11:34:52;;;;;;;4.75;3.05;;;;;29.30;94499.00;;;;7396284;19;20137;-76
2023/07/08 11:37:28;;;;;;;4.88;2.88;;;;;31.20;94476.00;;;;7397469;19;20148;-75
2023/07/08 11:40:21;;;;;;;4.47;2.90;;;;;32.50;94514.00;;;;7401495;19;20124;-76
2023/07/08 11:43:12;;;;;;;4.22;3.60;;;;;32.00;94492.00;;;;7402238;19;20129;-75
2023/07/08 11:45:53;;;;;;;5.18;3.03;;;;;33.00;94474.00;;;;7398541;19;20148;-76
2023/07/08 11:48:38;;;;;;;7.63;3.17;;;;;32.80;94478.00;;;;7399903;19;20144;-76
2023/07/08 11:51:06;;;;;;;5.30;3.53;;;;;33.10;94501.00;;;;7400501;19;20148;-76
2023/07/08 11:53:49;;;;;;;8.00;3.22;;;;;32.40;94512.00;;;;7398251;19;20505;-76
2023/07/08 11:56:22;;;;;;;3.92;3.03;;;;;31.00;94508.00;;;;7398889;19;20592;-76
2023/07/08 11:59:15;;;;;;;4.43;3.30;;;;;30.30;94471.00;;;;7400013;19;20165;-75
2023/07/08 12:02:11;;;;;;;5.47;3.30;;;;;32.90;94471.00;;;;7398843;19;20148;-77
2023/07/08 12:05:07;;;;;;;7.90;3.38;;;;;34.70;94473.00;;;;7397145;19;20588;-76
2023/07/08 12:07:45;;;;;;;5.10;3.22;;;;;35.00;94466.00;;;;7399180;19;20208;-76
2023/07/08 12:10:39;;;;;;;6.35;3.70;;;;;35.20;94465.00;;;;7398117;19;20136;-77
2023/07/08 12:13:19;;;;;;;4.13;3.55;;;;;35.30;94468.00;;;;7398134;19;20211;-77
2023/07/08 12:15:57;;;;;;;5.28;3.50;;;;;36.50;94468.00;;;;7398323;19;20644;-76
2023/07/08 12:18:38;;;;;;;6.65;3.25;;;;;36.80;94462.00;;;;7398832;19;20476;-77
2023/07/08 12:21:13;;;;;;;5.80;3.15;;;;;36.90;94459.00;;;;7397692;19;20270;-78
2023/07/08 12:23:48;;;;;;;4.85;3.30;;;;;37.30;94501.00;;;;7399499;19;20360;-79
2023/07/08 12:26:24;;;;;;;3.55;3.20;;;;;34.80;94495.00;;;;7398258;19;20187;-77
2023/07/08 12:28:52;;;;;;;5.13;3.20;;;;;34.30;94463.00;;;;7398934;19;20147;-77
2023/07/08 12:31:23;;;;;;;6.13;3.33;;;;;34.60;94427.00;;;;7398019;19;20636;-76
2023/07/08 12:33:58;;;;;;;7.07;3.63;;;;;35.10;94451.00;;;;7400162;19;20128;-76
2023/07/08 12:36:34;;;;;;;3.45;3.10;;;;;36.00;94452.00;;;;7399108;19;20136;-76
2023/07/08 12:39:18;;;;;;;4.03;3.28;;;;;36.40;94457.00;;;;7398394;19;20610;-75
2023/07/08 12:41:48;;;;;;;3.90;3.35;;;;;36.90;94454.00;;;;7396119;19;20157;-76
2023/07/08 12:44:25;;;;;;;6.50;3.78;;;;;36.00;94497.00;;;;7398277;19;20149;-76
2023/07/08 12:47:03;;;;;;;4.88;3.13;;;;;35.50;94465.00;;;;7398613;19;20136;-76
2023/07/08 12:49:37;;;;;;;4.20;3.15;;;;;35.10;94470.00;;;;7398626;19;20153;-77
2023/07/08 12:52:23;;;;;;;3.40;3.10;;;;;33.80;94464.00;;;;7397616;19;20151;-77
2023/07/08 12:55:10;;;;;;;4.60;3.33;;;;;33.70;94497.00;;;;7398074;19;20130;-77
2023/07/08 12:57:47;;;;;;;5.68;3.53;;;;;32.50;94460.00;;;;7396525;19;20223;-77
2023/07/08 13:00:31;;;;;;;3.55;3.15;;;;;34.10;94486.00;;;;7395752;19;20148;-77
2023/07/08 13:03:21;;;;;;;4.28;3.35;;;;;33.90;94497.00;;;;7394964;19;20205;-76
2023/07/08 13:06:03;;;;;;;5.75;3.40;;;;;32.90;94501.00;;;;7397874;19;20140;-76